NCAR-RAP Real-Time Weather Data

Output produced by METARs form (06 May 2021  16:38 UTC)
found at http://weather.rap.ucar.edu/surface/
 
KHTS 061551Z 02007KT 10SM CLR 13/02 A3015 RMK AO2 SLP209 T01280017
KHTS 061451Z 02007KT 10SM CLR 12/03 A3016 RMK AO2 SLP213 T01220033 50003
KHTS 061351Z VRB03KT 10SM CLR 11/03 A3018 RMK AO2 SLP220 T01060033
KHTS 061251Z 00000KT 10SM CLR 09/06 A3018 RMK AO2 SLP220 T00890056
KHTS 061204Z 00000KT 10SM CLR 07/05 A3016 RMK AO2 T00720050
KHTS 061157Z 00000KT 1 1/2SM BR SCT001 06/04 A3016 RMK AO2 T00610044
KHTS 061151Z 00000KT 1/2SM FG VV001 05/04 A3015 RMK AO2 SLP211 T00500039 10078 20033 53012
KHTS 061141Z 00000KT 3/4SM BR VV001 04/03 A3015 RMK AO2 T00440033
KHTS 061138Z 07003KT 1 3/4SM BR FEW001 04/03 A3015 RMK AO2 T00440033
KHTS 061051Z 22003KT 10SM CLR 04/03 A3014 RMK AO2 SLP208 T00390033
KHTS 060951Z 00000KT 10SM CLR 04/03 A3012 RMK AO2 SLP199 T00390028
KHTS 060851Z 00000KT 10SM CLR 04/03 A3012 RMK AO2 SLP199 T00440033 58002
KHTS 060751Z 00000KT 10SM CLR 06/03 A3013 RMK AO2 SLP201 T00610033
KHTS 060651Z 05003KT 10SM CLR 08/03 A3012 RMK AO2 SLP199 T00780028
KHTS 060551Z 04003KT 10SM CLR 08/03 A3012 RMK AO2 SLP200 T00830033 10150 20078 50003
KHTS 060451Z AUTO 04006KT 10SM CLR 09/03 A3013 RMK AO2 SLP203 T00890033 401830089
KHTS 060351Z 04006KT 10SM CLR 10/04 A3013 RMK AO2 SLP202 T01000039
KHTS 060251Z 36007KT 10SM CLR 11/04 A3011 RMK AO2 SLP196 T01110039 53022
KHTS 060151Z 36005KT 10SM FEW055 12/06 A3009 RMK AO2 SLP188 T01170056
KHTS 060051Z 35005KT 10SM BKN060 13/06 A3007 RMK AO2 SLP180 T01330056